Drayton Plains, MI (48330)

12:22 AM EDT on August 31, 2014 (GMT -0400)
WD8FM Joyce Ave. Drayton Plains, MI | Change Station
CLOSE
Current Station
Personal Weather Station
Location: Waterford Township, MI
Elevation: 981 ft
Nearby Weather Stations

Elev 981 ft 42.69 °N, 83.37 °W | Updated 6 minutes ago

Heavy Thunderstorms and Rain
Heavy Thunderstorm Rain Mist
69.7 °F
Feels Like 69.7 °F
N
3.0
Wind Variable Wind from East
Gusts 7.0 mph

Today
High -- | Low -- °F
--% Chance of Precip.
Yesterday
High -- | Low -- °F
Precip. -- in
6:57 AM 8:09 PM
Waxing Crescent, 27% visible
Pressure 29.94 in
Visibility 0.8 miles
Clouds Mostly Cloudy 1100 ft
Mostly Cloudy 2000 ft
Overcast 2600 ft
Dew Point 68 °F
Humidity 93%
Rainfall 0.40 in
Snow Depth Not available.
UV 0 out of 12
Pollen 8.20 out of 12
Ozone Good
PM2.5 Moderate
Flu Activity Not available.
SPECI KPTK 310411Z AUTO 22010G24KT 3/4SM R09R/1600VP6000FT +TSRA BR BKN011 BKN020 OVC026 21/19 A2994 RMK AO2 LTG DSNT NE P0040 T02110194

More Conditions Fewer Conditions

Pressure 29.94 in
Visibility 0.8 miles
Clouds Mostly Cloudy 1100 ft
Mostly Cloudy 2000 ft
Overcast 2600 ft
Dew Point 68 °F
Humidity 93%
Rainfall 0.40 in
Snow Depth Not available.
UV 0 out of 12
Pollen 8.20 out of 12
Ozone Good
PM2.5 Moderate
Flu Activity Not available.
SPECI KPTK 310411Z AUTO 22010G24KT 3/4SM R09R/1600VP6000FT +TSRA BR BKN011 BKN020 OVC026 21/19 A2994 RMK AO2 LTG DSNT NE P0040 T02110194

More Conditions Fewer Conditions

10-Day Weather Forecast

Almanac

Astronomy

Aug. 31, 2014 Rise Set
Actual Time 6:57 AM EDT 8:09 PM EDT
Civil Twilight 6:28 AM EDT 8:38 PM EDT
Nautical Twilight 5:53 AM EDT 9:13 PM EDT
Astronomical Twilight 5:16 AM EDT 9:49 PM EDT
Moon 12:51 PM EDT 11:15 PM EDT
Length of Visible Light 14h 10m
Length of Day
13h 12m
Tomorrow will be 2m 46s shorter.
Waxing Crescent, 27% of the Moon is Illuminated
Today
Waxing Crescent
Sep 2
First Quarter
Sep 8
Full
Sep 15
Last Quarter
Sep 24
New

Yesterday's Extremes

State Highs State Lows

Community

WunderPhotos

Upload Photos

1,748,776 photos uploaded!

Nearby

Air Quality

  Air Quality AQ Index Pollutant
Yesterday Good
PM10
Yesterday Good
OZONE
Current Moderate
PM2.5
Current Good
OZONE
Saturday Moderate
PM2.5
Saturday Good
OZONE
Sunday Good
OZONE
Sunday Good
PM2.5
Monday Good
OZONE
Monday Good
PM2.5
Tuesday Good
OZONE
Tuesday Good
PM2.5

Snow Depth

Station Depth Elevation
No new snow has been reported.

Earthquake Activity

City Distance Mag. Time & Date
No recent earthquake activity has been reported nearby.
Minimum magnitude displayed is 2.5.

Coastal Water Temperatures

Place Temperature
No Stations Reporting

Nearby Weather Stations